sensor_id;sensor_type;location;lat;lon;timestamp;temperature;humidity
13944;DHT22;7044;53.286;8.534;2022-10-31T00:01:35;14.30;99.90
13944;DHT22;7044;53.286;8.534;2022-10-31T00:04:02;14.20;99.90
13944;DHT22;7044;53.286;8.534;2022-10-31T00:06:29;14.20;99.90
13944;DHT22;7044;53.286;8.534;2022-10-31T00:08:58;14.20;99.90
13944;DHT22;7044;53.286;8.534;2022-10-31T00:11:25;14.30;99.90
13944;DHT22;7044;53.286;8.534;2022-10-31T00:13:53;14.30;99.90
13944;DHT22;7044;53.286;8.534;2022-10-31T00:16:22;14.30;99.90
13944;DHT22;7044;53.286;8.534;2022-10-31T00:18:50;14.20;99.90
13944;DHT22;7044;53.286;8.534;2022-10-31T00:21:17;14.20;99.90
13944;DHT22;7044;53.286;8.534;2022-10-31T00:23:44;14.20;99.90
13944;DHT22;7044;53.286;8.534;2022-10-31T00:26:11;14.20;99.90
13944;DHT22;7044;53.286;8.534;2022-10-31T00:28:38;14.10;99.90
13944;DHT22;7044;53.286;8.534;2022-10-31T00:31:08;14.20;99.90
13944;DHT22;7044;53.286;8.534;2022-10-31T00:33:37;14.10;99.90
13944;DHT22;7044;53.286;8.534;2022-10-31T00:36:06;14.00;99.90
13944;DHT22;7044;53.286;8.534;2022-10-31T00:38:33;13.90;99.90
13944;DHT22;7044;53.286;8.534;2022-10-31T00:41:00;13.90;99.90
13944;DHT22;7044;53.286;8.534;2022-10-31T00:43:27;13.90;99.90
13944;DHT22;7044;53.286;8.534;2022-10-31T00:45:54;13.80;99.90
13944;DHT22;7044;53.286;8.534;2022-10-31T00:48:21;13.80;99.90
13944;DHT22;7044;53.286;8.534;2022-10-31T00:50:49;13.90;99.90
13944;DHT22;7044;53.286;8.534;2022-10-31T00:53:16;13.90;99.90
13944;DHT22;7044;53.286;8.534;2022-10-31T00:55:43;13.90;99.90
13944;DHT22;7044;53.286;8.534;2022-10-31T00:58:10;13.80;99.90
13944;DHT22;7044;53.286;8.534;2022-10-31T01:00:36;13.80;99.90
13944;DHT22;7044;53.286;8.534;2022-10-31T01:03:03;13.80;99.90
13944;DHT22;7044;53.286;8.534;2022-10-31T01:05:30;13.80;99.90
13944;DHT22;7044;53.286;8.534;2022-10-31T01:07:58;13.90;99.90
13944;DHT22;7044;53.286;8.534;2022-10-31T01:10:25;13.70;99.90
13944;DHT22;7044;53.286;8.534;2022-10-31T01:12:52;13.60;99.90
13944;DHT22;7044;53.286;8.534;2022-10-31T01:15:21;13.60;99.90
13944;DHT22;7044;53.286;8.534;2022-10-31T01:17:48;13.60;99.90
13944;DHT22;7044;53.286;8.534;2022-10-31T01:20:16;13.50;99.90
13944;DHT22;7044;53.286;8.534;2022-10-31T01:22:43;13.40;99.90
13944;DHT22;7044;53.286;8.534;2022-10-31T01:25:11;13.50;99.90
13944;DHT22;7044;53.286;8.534;2022-10-31T01:27:38;13.50;99.90
13944;DHT22;7044;53.286;8.534;2022-10-31T01:30:06;13.50;99.90
13944;DHT22;7044;53.286;8.534;2022-10-31T01:32:33;13.40;99.90
13944;DHT22;7044;53.286;8.534;2022-10-31T01:35:00;13.40;99.90
13944;DHT22;7044;53.286;8.534;2022-10-31T01:37:27;13.30;99.90
13944;DHT22;7044;53.286;8.534;2022-10-31T01:39:54;13.30;99.90
13944;DHT22;7044;53.286;8.534;2022-10-31T01:42:23;13.30;99.90
13944;DHT22;7044;53.286;8.534;2022-10-31T01:44:59;13.30;99.90
13944;DHT22;7044;53.286;8.534;2022-10-31T01:47:40;13.30;99.90
13944;DHT22;7044;53.286;8.534;2022-10-31T01:50:13;13.30;99.90
13944;DHT22;7044;53.286;8.534;2022-10-31T01:52:43;13.40;99.90
13944;DHT22;7044;53.286;8.534;2022-10-31T01:55:15;13.40;99.90
13944;DHT22;7044;53.286;8.534;2022-10-31T01:57:46;13.30;99.90
13944;DHT22;7044;53.286;8.534;2022-10-31T02:00:14;13.30;99.90
13944;DHT22;7044;53.286;8.534;2022-10-31T02:02:42;13.30;99.90
13944;DHT22;7044;53.286;8.534;2022-10-31T02:05:12;13.20;99.90
13944;DHT22;7044;53.286;8.534;2022-10-31T02:07:42;13.20;99.90
13944;DHT22;7044;53.286;8.534;2022-10-31T02:10:10;13.00;99.90
13944;DHT22;7044;53.286;8.534;2022-10-31T02:12:37;12.90;99.90
13944;DHT22;7044;53.286;8.534;2022-10-31T02:15:07;12.80;99.90
13944;DHT22;7044;53.286;8.534;2022-10-31T02:17:35;12.60;99.90
13944;DHT22;7044;53.286;8.534;2022-10-31T02:20:12;12.50;99.90
13944;DHT22;7044;53.286;8.534;2022-10-31T02:22:52;12.40;99.90
13944;DHT22;7044;53.286;8.534;2022-10-31T02:25:51;12.30;99.90
13944;DHT22;7044;53.286;8.534;2022-10-31T02:28:37;12.40;99.90
13944;DHT22;7044;53.286;8.534;2022-10-31T02:31:20;12.40;99.90
13944;DHT22;7044;53.286;8.534;2022-10-31T02:33:52;12.50;99.90
13944;DHT22;7044;53.286;8.534;2022-10-31T02:36:24;12.50;99.90
13944;DHT22;7044;53.286;8.534;2022-10-31T02:39:02;12.60;99.90
13944;DHT22;7044;53.286;8.534;2022-10-31T02:41:37;12.60;99.90
13944;DHT22;7044;53.286;8.534;2022-10-31T02:44:11;12.60;99.90
13944;DHT22;7044;53.286;8.534;2022-10-31T02:46:47;12.60;99.90
13944;DHT22;7044;53.286;8.534;2022-10-31T02:49:21;12.60;99.90
13944;DHT22;7044;53.286;8.534;2022-10-31T02:51:49;12.70;99.90
13944;DHT22;7044;53.286;8.534;2022-10-31T02:54:22;12.70;99.90
13944;DHT22;7044;53.286;8.534;2022-10-31T02:56:52;12.70;99.90
13944;DHT22;7044;53.286;8.534;2022-10-31T02:59:21;12.70;99.90
13944;DHT22;7044;53.286;8.534;2022-10-31T03:07:35;12.60;99.90
13944;DHT22;7044;53.286;8.534;2022-10-31T03:10:13;12.50;99.90
13944;DHT22;7044;53.286;8.534;2022-10-31T03:12:48;12.40;99.90
13944;DHT22;7044;53.286;8.534;2022-10-31T03:15:21;12.40;99.90
13944;DHT22;7044;53.286;8.534;2022-10-31T03:17:56;12.40;99.90
13944;DHT22;7044;53.286;8.534;2022-10-31T03:20:30;12.40;99.90
13944;DHT22;7044;53.286;8.534;2022-10-31T03:23:01;12.40;99.90
13944;DHT22;7044;53.286;8.534;2022-10-31T03:25:29;12.20;99.90
13944;DHT22;7044;53.286;8.534;2022-10-31T03:27:58;12.10;99.90
13944;DHT22;7044;53.286;8.534;2022-10-31T03:30:26;11.90;99.90
13944;DHT22;7044;53.286;8.534;2022-10-31T03:32:56;12.00;99.90
13944;DHT22;7044;53.286;8.534;2022-10-31T03:35:27;12.00;99.90
13944;DHT22;7044;53.286;8.534;2022-10-31T03:37:55;11.90;99.90
13944;DHT22;7044;53.286;8.534;2022-10-31T03:40:26;12.00;99.90
13944;DHT22;7044;53.286;8.534;2022-10-31T03:42:57;11.90;99.90
13944;DHT22;7044;53.286;8.534;2022-10-31T03:45:29;11.80;99.90
13944;DHT22;7044;53.286;8.534;2022-10-31T03:47:58;11.70;99.90
13944;DHT22;7044;53.286;8.534;2022-10-31T03:50:33;11.80;99.90
13944;DHT22;7044;53.286;8.534;2022-10-31T03:53:06;11.70;99.90
13944;DHT22;7044;53.286;8.534;2022-10-31T03:55:40;11.80;99.90
13944;DHT22;7044;53.286;8.534;2022-10-31T03:58:11;11.70;99.90
13944;DHT22;7044;53.286;8.534;2022-10-31T04:00:41;11.70;99.90
13944;DHT22;7044;53.286;8.534;2022-10-31T04:03:14;11.70;99.90
13944;DHT22;7044;53.286;8.534;2022-10-31T04:05:45;11.60;99.90
13944;DHT22;7044;53.286;8.534;2022-10-31T04:08:18;11.60;99.90
13944;DHT22;7044;53.286;8.534;2022-10-31T04:10:48;11.50;99.90
13944;DHT22;7044;53.286;8.534;2022-10-31T04:13:19;11.60;99.90
13944;DHT22;7044;53.286;8.534;2022-10-31T04:15:49;11.70;99.90
13944;DHT22;7044;53.286;8.534;2022-10-31T04:18:18;11.90;99.90
13944;DHT22;7044;53.286;8.534;2022-10-31T04:20:47;11.80;99.90
13944;DHT22;7044;53.286;8.534;2022-10-31T04:23:18;11.80;99.90
13944;DHT22;7044;53.286;8.534;2022-10-31T04:25:45;11.90;99.90
13944;DHT22;7044;53.286;8.534;2022-10-31T04:28:12;11.90;99.90
13944;DHT22;7044;53.286;8.534;2022-10-31T04:30:39;11.90;99.90
13944;DHT22;7044;53.286;8.534;2022-10-31T04:33:06;12.00;99.90
13944;DHT22;7044;53.286;8.534;2022-10-31T04:35:34;11.90;99.90
13944;DHT22;7044;53.286;8.534;2022-10-31T04:38:01;12.10;99.90
13944;DHT22;7044;53.286;8.534;2022-10-31T04:40:28;12.00;99.90
13944;DHT22;7044;53.286;8.534;2022-10-31T04:42:55;12.00;99.90
13944;DHT22;7044;53.286;8.534;2022-10-31T04:45:21;12.10;99.90
13944;DHT22;7044;53.286;8.534;2022-10-31T04:47:48;12.10;99.90
13944;DHT22;7044;53.286;8.534;2022-10-31T04:50:15;12.10;99.90
13944;DHT22;7044;53.286;8.534;2022-10-31T04:52:45;12.10;99.90
13944;DHT22;7044;53.286;8.534;2022-10-31T04:55:13;12.10;99.90
13944;DHT22;7044;53.286;8.534;2022-10-31T04:57:40;12.10;99.90
13944;DHT22;7044;53.286;8.534;2022-10-31T05:00:09;12.10;99.90
13944;DHT22;7044;53.286;8.534;2022-10-31T05:02:43;12.10;99.90
13944;DHT22;7044;53.286;8.534;2022-10-31T05:05:10;12.20;99.90
13944;DHT22;7044;53.286;8.534;2022-10-31T05:07:39;12.10;99.90
13944;DHT22;7044;53.286;8.534;2022-10-31T05:10:09;12.20;99.90
13944;DHT22;7044;53.286;8.534;2022-10-31T05:12:36;12.20;99.90
13944;DHT22;7044;53.286;8.534;2022-10-31T05:15:04;12.10;99.90
13944;DHT22;7044;53.286;8.534;2022-10-31T05:17:31;12.20;99.90
13944;DHT22;7044;53.286;8.534;2022-10-31T05:19:58;12.10;99.90
13944;DHT22;7044;53.286;8.534;2022-10-31T05:22:25;12.10;99.90
13944;DHT22;7044;53.286;8.534;2022-10-31T05:24:52;12.10;99.90
13944;DHT22;7044;53.286;8.534;2022-10-31T05:27:20;12.10;99.90
13944;DHT22;7044;53.286;8.534;2022-10-31T05:29:47;12.00;99.90
13944;DHT22;7044;53.286;8.534;2022-10-31T05:32:14;12.00;99.90
13944;DHT22;7044;53.286;8.534;2022-10-31T05:34:41;12.10;99.90
13944;DHT22;7044;53.286;8.534;2022-10-31T05:37:08;12.10;99.90
13944;DHT22;7044;53.286;8.534;2022-10-31T05:39:35;12.20;99.90
13944;DHT22;7044;53.286;8.534;2022-10-31T05:42:02;12.20;99.90
13944;DHT22;7044;53.286;8.534;2022-10-31T05:44:30;12.30;99.90
13944;DHT22;7044;53.286;8.534;2022-10-31T05:46:57;12.30;99.90
13944;DHT22;7044;53.286;8.534;2022-10-31T05:49:24;12.30;99.90
13944;DHT22;7044;53.286;8.534;2022-10-31T05:51:51;12.40;99.90
13944;DHT22;7044;53.286;8.534;2022-10-31T05:54:18;12.50;99.90
13944;DHT22;7044;53.286;8.534;2022-10-31T05:56:44;12.50;99.90
13944;DHT22;7044;53.286;8.534;2022-10-31T05:59:11;12.50;99.90
13944;DHT22;7044;53.286;8.534;2022-10-31T06:01:40;12.50;99.90
13944;DHT22;7044;53.286;8.534;2022-10-31T06:04:07;12.50;99.90
13944;DHT22;7044;53.286;8.534;2022-10-31T06:06:33;12.60;99.90
13944;DHT22;7044;53.286;8.534;2022-10-31T06:09:00;12.60;99.90
13944;DHT22;7044;53.286;8.534;2022-10-31T06:11:27;12.60;99.90
13944;DHT22;7044;53.286;8.534;2022-10-31T06:13:54;12.60;99.90
13944;DHT22;7044;53.286;8.534;2022-10-31T06:16:21;12.60;99.90
13944;DHT22;7044;53.286;8.534;2022-10-31T06:18:50;12.60;99.90
13944;DHT22;7044;53.286;8.534;2022-10-31T06:21:17;12.60;99.90
13944;DHT22;7044;53.286;8.534;2022-10-31T06:23:44;12.60;99.90
13944;DHT22;7044;53.286;8.534;2022-10-31T06:26:11;12.60;99.90
13944;DHT22;7044;53.286;8.534;2022-10-31T06:28:38;12.60;99.90
13944;DHT22;7044;53.286;8.534;2022-10-31T06:31:05;12.60;99.90
13944;DHT22;7044;53.286;8.534;2022-10-31T06:33:32;12.60;99.90
13944;DHT22;7044;53.286;8.534;2022-10-31T06:36:01;12.60;99.90
13944;DHT22;7044;53.286;8.534;2022-10-31T06:38:28;12.60;99.90
13944;DHT22;7044;53.286;8.534;2022-10-31T06:40:55;12.60;99.90
13944;DHT22;7044;53.286;8.534;2022-10-31T06:43:22;12.50;99.90
13944;DHT22;7044;53.286;8.534;2022-10-31T06:45:48;12.70;99.90
13944;DHT22;7044;53.286;8.534;2022-10-31T06:48:15;12.80;99.90
13944;DHT22;7044;53.286;8.534;2022-10-31T06:50:42;12.80;99.90
13944;DHT22;7044;53.286;8.534;2022-10-31T06:53:10;12.80;99.90
13944;DHT22;7044;53.286;8.534;2022-10-31T06:55:38;12.70;99.90
13944;DHT22;7044;53.286;8.534;2022-10-31T06:58:05;12.70;99.90
13944;DHT22;7044;53.286;8.534;2022-10-31T07:00:32;12.70;99.90
13944;DHT22;7044;53.286;8.534;2022-10-31T07:03:00;12.70;99.90
13944;DHT22;7044;53.286;8.534;2022-10-31T07:05:28;12.70;99.90
13944;DHT22;7044;53.286;8.534;2022-10-31T07:07:57;12.60;99.90
13944;DHT22;7044;53.286;8.534;2022-10-31T07:10:27;12.60;99.90
13944;DHT22;7044;53.286;8.534;2022-10-31T07:12:55;12.60;99.90
13944;DHT22;7044;53.286;8.534;2022-10-31T07:15:22;12.60;99.90
13944;DHT22;7044;53.286;8.534;2022-10-31T07:17:49;12.60;99.90
13944;DHT22;7044;53.286;8.534;2022-10-31T07:20:16;12.60;99.90
13944;DHT22;7044;53.286;8.534;2022-10-31T07:22:43;12.60;99.90
13944;DHT22;7044;53.286;8.534;2022-10-31T07:25:10;12.60;99.90
13944;DHT22;7044;53.286;8.534;2022-10-31T07:27:39;12.80;99.90
13944;DHT22;7044;53.286;8.534;2022-10-31T07:30:08;12.70;99.90
13944;DHT22;7044;53.286;8.534;2022-10-31T07:32:39;12.70;99.90
13944;DHT22;7044;53.286;8.534;2022-10-31T07:35:07;12.70;99.90
13944;DHT22;7044;53.286;8.534;2022-10-31T07:37:33;12.70;99.90
13944;DHT22;7044;53.286;8.534;2022-10-31T07:40:00;12.70;99.90
13944;DHT22;7044;53.286;8.534;2022-10-31T07:42:27;12.70;99.90
13944;DHT22;7044;53.286;8.534;2022-10-31T07:44:55;12.70;99.90
13944;DHT22;7044;53.286;8.534;2022-10-31T07:47:22;12.70;99.90
13944;DHT22;7044;53.286;8.534;2022-10-31T07:49:49;12.70;99.90
13944;DHT22;7044;53.286;8.534;2022-10-31T07:52:15;12.70;99.90
13944;DHT22;7044;53.286;8.534;2022-10-31T07:54:44;12.60;99.90
13944;DHT22;7044;53.286;8.534;2022-10-31T07:57:11;12.70;99.90
13944;DHT22;7044;53.286;8.534;2022-10-31T07:59:38;12.70;99.90
13944;DHT22;7044;53.286;8.534;2022-10-31T08:02:07;12.70;99.90
13944;DHT22;7044;53.286;8.534;2022-10-31T08:04:34;12.70;99.90
13944;DHT22;7044;53.286;8.534;2022-10-31T08:07:01;12.80;99.90
13944;DHT22;7044;53.286;8.534;2022-10-31T08:09:28;12.80;99.90
13944;DHT22;7044;53.286;8.534;2022-10-31T08:11:54;12.90;99.90
13944;DHT22;7044;53.286;8.534;2022-10-31T08:14:21;12.80;99.90
13944;DHT22;7044;53.286;8.534;2022-10-31T08:16:48;12.90;99.90
13944;DHT22;7044;53.286;8.534;2022-10-31T08:19:16;12.90;99.90
13944;DHT22;7044;53.286;8.534;2022-10-31T08:21:43;12.90;99.90
13944;DHT22;7044;53.286;8.534;2022-10-31T08:24:10;12.90;99.90
13944;DHT22;7044;53.286;8.534;2022-10-31T08:26:37;13.00;99.90
13944;DHT22;7044;53.286;8.534;2022-10-31T08:29:04;13.10;99.90
13944;DHT22;7044;53.286;8.534;2022-10-31T08:31:31;13.00;99.90
13944;DHT22;7044;53.286;8.534;2022-10-31T08:33:57;13.00;99.90
13944;DHT22;7044;53.286;8.534;2022-10-31T08:36:27;13.00;99.90
13944;DHT22;7044;53.286;8.534;2022-10-31T08:38:54;13.00;99.90
13944;DHT22;7044;53.286;8.534;2022-10-31T08:41:21;13.00;99.90
13944;DHT22;7044;53.286;8.534;2022-10-31T08:43:48;13.10;99.90
13944;DHT22;7044;53.286;8.534;2022-10-31T08:46:15;13.10;99.90
13944;DHT22;7044;53.286;8.534;2022-10-31T08:48:42;13.10;99.90
13944;DHT22;7044;53.286;8.534;2022-10-31T08:51:09;13.10;99.90
13944;DHT22;7044;53.286;8.534;2022-10-31T08:53:38;13.10;99.90
13944;DHT22;7044;53.286;8.534;2022-10-31T08:56:05;13.20;99.90
13944;DHT22;7044;53.286;8.534;2022-10-31T08:58:32;13.20;99.90
13944;DHT22;7044;53.286;8.534;2022-10-31T09:01:00;13.10;99.90
13944;DHT22;7044;53.286;8.534;2022-10-31T09:03:28;13.20;99.90
13944;DHT22;7044;53.286;8.534;2022-10-31T09:05:57;13.20;99.90
13944;DHT22;7044;53.286;8.534;2022-10-31T09:08:24;13.20;99.90
13944;DHT22;7044;53.286;8.534;2022-10-31T09:10:56;13.20;99.90
13944;DHT22;7044;53.286;8.534;2022-10-31T09:13:23;13.20;99.90
13944;DHT22;7044;53.286;8.534;2022-10-31T09:15:50;13.10;99.90
13944;DHT22;7044;53.286;8.534;2022-10-31T09:18:19;13.30;99.90
13944;DHT22;7044;53.286;8.534;2022-10-31T09:20:47;13.30;99.90
13944;DHT22;7044;53.286;8.534;2022-10-31T09:23:16;13.40;99.90
13944;DHT22;7044;53.286;8.534;2022-10-31T09:25:43;13.50;99.90
13944;DHT22;7044;53.286;8.534;2022-10-31T09:28:14;13.50;99.90
13944;DHT22;7044;53.286;8.534;2022-10-31T09:30:41;13.70;99.90
13944;DHT22;7044;53.286;8.534;2022-10-31T09:33:11;13.50;99.90
13944;DHT22;7044;53.286;8.534;2022-10-31T09:35:38;13.60;99.90
13944;DHT22;7044;53.286;8.534;2022-10-31T09:38:08;13.70;99.90
13944;DHT22;7044;53.286;8.534;2022-10-31T09:40:37;13.80;99.90
13944;DHT22;7044;53.286;8.534;2022-10-31T09:43:14;13.80;99.90
13944;DHT22;7044;53.286;8.534;2022-10-31T09:45:51;13.80;99.90
13944;DHT22;7044;53.286;8.534;2022-10-31T09:48:41;14.00;99.90
13944;DHT22;7044;53.286;8.534;2022-10-31T09:51:14;14.00;99.90
13944;DHT22;7044;53.286;8.534;2022-10-31T09:53:45;14.00;99.90
13944;DHT22;7044;53.286;8.534;2022-10-31T09:56:16;14.00;99.90
13944;DHT22;7044;53.286;8.534;2022-10-31T09:58:49;14.10;99.90
13944;DHT22;7044;53.286;8.534;2022-10-31T10:01:29;14.20;99.90
13944;DHT22;7044;53.286;8.534;2022-10-31T10:04:02;14.20;99.90
13944;DHT22;7044;53.286;8.534;2022-10-31T10:06:34;14.30;99.90
13944;DHT22;7044;53.286;8.534;2022-10-31T10:09:02;14.30;99.90
13944;DHT22;7044;53.286;8.534;2022-10-31T10:11:41;14.30;99.90
13944;DHT22;7044;53.286;8.534;2022-10-31T10:14:31;14.30;99.90
13944;DHT22;7044;53.286;8.534;2022-10-31T10:17:18;14.40;99.90
13944;DHT22;7044;53.286;8.534;2022-10-31T10:22:40;14.40;99.90
13944;DHT22;7044;53.286;8.534;2022-10-31T10:25:15;14.50;99.90
13944;DHT22;7044;53.286;8.534;2022-10-31T10:27:55;14.60;99.90
13944;DHT22;7044;53.286;8.534;2022-10-31T10:30:32;14.60;99.90
13944;DHT22;7044;53.286;8.534;2022-10-31T10:33:02;14.60;99.90
13944;DHT22;7044;53.286;8.534;2022-10-31T10:35:32;14.60;99.90
13944;DHT22;7044;53.286;8.534;2022-10-31T10:38:03;14.70;99.90
13944;DHT22;7044;53.286;8.534;2022-10-31T10:40:35;14.70;99.90
13944;DHT22;7044;53.286;8.534;2022-10-31T10:43:23;14.70;99.90
13944;DHT22;7044;53.286;8.534;2022-10-31T10:49:04;14.90;99.90
13944;DHT22;7044;53.286;8.534;2022-10-31T10:51:38;14.30;99.90
13944;DHT22;7044;53.286;8.534;2022-10-31T10:54:17;15.10;99.90
13944;DHT22;7044;53.286;8.534;2022-10-31T10:56:57;15.10;99.90
13944;DHT22;7044;53.286;8.534;2022-10-31T10:59:27;15.20;99.90
13944;DHT22;7044;53.286;8.534;2022-10-31T11:01:58;15.10;99.90
13944;DHT22;7044;53.286;8.534;2022-10-31T11:04:29;15.20;99.90
13944;DHT22;7044;53.286;8.534;2022-10-31T11:06:58;15.30;99.90
13944;DHT22;7044;53.286;8.534;2022-10-31T11:09:25;15.30;99.90
13944;DHT22;7044;53.286;8.534;2022-10-31T11:11:52;15.30;99.90
13944;DHT22;7044;53.286;8.534;2022-10-31T11:14:20;15.40;99.90
13944;DHT22;7044;53.286;8.534;2022-10-31T11:16:48;15.40;99.90
13944;DHT22;7044;53.286;8.534;2022-10-31T11:19:19;15.50;99.90
13944;DHT22;7044;53.286;8.534;2022-10-31T11:21:47;15.40;99.90
13944;DHT22;7044;53.286;8.534;2022-10-31T11:24:18;15.40;99.90
13944;DHT22;7044;53.286;8.534;2022-10-31T11:26:47;15.40;99.90
13944;DHT22;7044;53.286;8.534;2022-10-31T11:29:16;15.50;99.90
13944;DHT22;7044;53.286;8.534;2022-10-31T11:31:45;15.60;99.90
13944;DHT22;7044;53.286;8.534;2022-10-31T11:34:18;15.60;99.90
13944;DHT22;7044;53.286;8.534;2022-10-31T11:36:48;15.60;99.90
13944;DHT22;7044;53.286;8.534;2022-10-31T11:39:17;15.60;99.90
13944;DHT22;7044;53.286;8.534;2022-10-31T11:41:45;14.20;99.90
13944;DHT22;7044;53.286;8.534;2022-10-31T11:44:16;15.50;99.90
13944;DHT22;7044;53.286;8.534;2022-10-31T11:46:46;15.60;99.90
13944;DHT22;7044;53.286;8.534;2022-10-31T11:49:17;15.60;99.90
13944;DHT22;7044;53.286;8.534;2022-10-31T11:51:48;15.60;99.90
13944;DHT22;7044;53.286;8.534;2022-10-31T11:54:22;15.60;99.90
13944;DHT22;7044;53.286;8.534;2022-10-31T11:56:50;15.60;99.90
13944;DHT22;7044;53.286;8.534;2022-10-31T11:59:22;15.60;99.90
13944;DHT22;7044;53.286;8.534;2022-10-31T12:01:51;15.60;99.90
13944;DHT22;7044;53.286;8.534;2022-10-31T12:04:24;15.60;99.90
13944;DHT22;7044;53.286;8.534;2022-10-31T12:06:54;15.60;99.90
13944;DHT22;7044;53.286;8.534;2022-10-31T12:09:23;15.50;99.90
13944;DHT22;7044;53.286;8.534;2022-10-31T12:12:03;15.60;99.90
13944;DHT22;7044;53.286;8.534;2022-10-31T12:14:36;15.60;99.90
13944;DHT22;7044;53.286;8.534;2022-10-31T12:17:10;15.50;99.90
13944;DHT22;7044;53.286;8.534;2022-10-31T12:19:44;15.50;99.90
13944;DHT22;7044;53.286;8.534;2022-10-31T12:22:19;15.50;99.90
13944;DHT22;7044;53.286;8.534;2022-10-31T12:25:05;15.50;99.90
13944;DHT22;7044;53.286;8.534;2022-10-31T12:27:59;15.60;99.90
13944;DHT22;7044;53.286;8.534;2022-10-31T12:30:39;15.50;99.90
13944;DHT22;7044;53.286;8.534;2022-10-31T12:33:25;15.60;99.90
13944;DHT22;7044;53.286;8.534;2022-10-31T12:36:07;15.50;99.90
13944;DHT22;7044;53.286;8.534;2022-10-31T12:38:49;15.60;99.90
13944;DHT22;7044;53.286;8.534;2022-10-31T12:41:31;15.50;99.90
13944;DHT22;7044;53.286;8.534;2022-10-31T12:44:06;15.50;99.90
13944;DHT22;7044;53.286;8.534;2022-10-31T12:46:51;15.50;99.90
13944;DHT22;7044;53.286;8.534;2022-10-31T12:49:36;15.50;99.90
13944;DHT22;7044;53.286;8.534;2022-10-31T12:52:13;15.50;99.90
13944;DHT22;7044;53.286;8.534;2022-10-31T12:54:55;15.50;99.90
13944;DHT22;7044;53.286;8.534;2022-10-31T12:57:32;15.50;99.90
13944;DHT22;7044;53.286;8.534;2022-10-31T13:00:05;15.50;99.90
13944;DHT22;7044;53.286;8.534;2022-10-31T13:02:39;15.40;99.90
13944;DHT22;7044;53.286;8.534;2022-10-31T13:05:13;15.50;99.90
13944;DHT22;7044;53.286;8.534;2022-10-31T13:07:46;15.50;99.90
13944;DHT22;7044;53.286;8.534;2022-10-31T13:10:17;15.50;99.90
13944;DHT22;7044;53.286;8.534;2022-10-31T13:12:49;15.50;99.90
13944;DHT22;7044;53.286;8.534;2022-10-31T13:15:18;15.50;99.90
13944;DHT22;7044;53.286;8.534;2022-10-31T13:17:48;15.40;99.90
13944;DHT22;7044;53.286;8.534;2022-10-31T13:20:23;15.40;99.90
13944;DHT22;7044;53.286;8.534;2022-10-31T13:22:54;15.30;99.90
13944;DHT22;7044;53.286;8.534;2022-10-31T13:25:25;15.30;99.90
13944;DHT22;7044;53.286;8.534;2022-10-31T13:27:57;15.20;99.90
13944;DHT22;7044;53.286;8.534;2022-10-31T13:30:27;15.20;99.90
13944;DHT22;7044;53.286;8.534;2022-10-31T13:33:00;15.20;99.90
13944;DHT22;7044;53.286;8.534;2022-10-31T13:35:35;15.20;99.90
13944;DHT22;7044;53.286;8.534;2022-10-31T13:38:19;15.20;99.90
13944;DHT22;7044;53.286;8.534;2022-10-31T13:40:53;15.20;99.90
13944;DHT22;7044;53.286;8.534;2022-10-31T13:43:32;15.20;99.90
13944;DHT22;7044;53.286;8.534;2022-10-31T13:46:00;15.20;99.90
13944;DHT22;7044;53.286;8.534;2022-10-31T13:48:36;15.30;99.90
13944;DHT22;7044;53.286;8.534;2022-10-31T13:51:06;15.40;99.90
13944;DHT22;7044;53.286;8.534;2022-10-31T13:53:43;15.30;99.90
13944;DHT22;7044;53.286;8.534;2022-10-31T13:56:16;15.40;99.90
13944;DHT22;7044;53.286;8.534;2022-10-31T13:59:05;15.30;99.90
13944;DHT22;7044;53.286;8.534;2022-10-31T14:01:47;15.30;99.90
13944;DHT22;7044;53.286;8.534;2022-10-31T14:04:16;15.30;99.90
13944;DHT22;7044;53.286;8.534;2022-10-31T14:06:51;15.30;99.90
13944;DHT22;7044;53.286;8.534;2022-10-31T14:09:26;15.20;99.90
13944;DHT22;7044;53.286;8.534;2022-10-31T14:11:55;15.20;99.90
13944;DHT22;7044;53.286;8.534;2022-10-31T14:14:26;15.20;99.90
13944;DHT22;7044;53.286;8.534;2022-10-31T14:16:57;15.30;99.90
13944;DHT22;7044;53.286;8.534;2022-10-31T14:19:25;15.10;99.90
13944;DHT22;7044;53.286;8.534;2022-10-31T14:21:52;15.00;99.90
13944;DHT22;7044;53.286;8.534;2022-10-31T14:24:36;15.00;99.90
13944;DHT22;7044;53.286;8.534;2022-10-31T14:29:46;15.00;99.90
13944;DHT22;7044;53.286;8.534;2022-10-31T14:32:21;14.90;99.90
13944;DHT22;7044;53.286;8.534;2022-10-31T14:34:53;14.90;99.90
13944;DHT22;7044;53.286;8.534;2022-10-31T14:37:39;14.90;99.90
13944;DHT22;7044;53.286;8.534;2022-10-31T14:40:24;14.90;99.90
13944;DHT22;7044;53.286;8.534;2022-10-31T14:45:55;14.90;99.90
13944;DHT22;7044;53.286;8.534;2022-10-31T14:48:41;14.90;99.90
13944;DHT22;7044;53.286;8.534;2022-10-31T14:51:16;14.90;99.90
13944;DHT22;7044;53.286;8.534;2022-10-31T14:53:47;14.90;99.90
13944;DHT22;7044;53.286;8.534;2022-10-31T14:56:20;14.90;99.90
13944;DHT22;7044;53.286;8.534;2022-10-31T14:58:48;14.90;99.90
13944;DHT22;7044;53.286;8.534;2022-10-31T15:01:19;15.00;99.90
13944;DHT22;7044;53.286;8.534;2022-10-31T15:03:47;14.90;99.90
13944;DHT22;7044;53.286;8.534;2022-10-31T15:06:16;14.90;99.90
13944;DHT22;7044;53.286;8.534;2022-10-31T15:08:46;15.00;99.90
13944;DHT22;7044;53.286;8.534;2022-10-31T15:11:15;14.90;99.90
13944;DHT22;7044;53.286;8.534;2022-10-31T15:13:46;15.00;99.90
13944;DHT22;7044;53.286;8.534;2022-10-31T15:16:15;15.00;99.90
13944;DHT22;7044;53.286;8.534;2022-10-31T15:18:52;14.90;99.90
13944;DHT22;7044;53.286;8.534;2022-10-31T15:21:21;14.90;99.90
13944;DHT22;7044;53.286;8.534;2022-10-31T15:23:50;14.90;99.90
13944;DHT22;7044;53.286;8.534;2022-10-31T15:26:19;14.90;99.90
13944;DHT22;7044;53.286;8.534;2022-10-31T15:28:57;14.90;99.90
13944;DHT22;7044;53.286;8.534;2022-10-31T15:31:25;14.90;99.90
13944;DHT22;7044;53.286;8.534;2022-10-31T15:33:53;14.90;99.90
13944;DHT22;7044;53.286;8.534;2022-10-31T15:36:24;14.90;99.90
13944;DHT22;7044;53.286;8.534;2022-10-31T15:38:51;15.00;99.90
13944;DHT22;7044;53.286;8.534;2022-10-31T15:41:29;14.90;99.90
13944;DHT22;7044;53.286;8.534;2022-10-31T15:44:01;14.80;99.90
13944;DHT22;7044;53.286;8.534;2022-10-31T15:46:30;14.90;99.90
13944;DHT22;7044;53.286;8.534;2022-10-31T15:48:57;14.80;99.90
13944;DHT22;7044;53.286;8.534;2022-10-31T15:51:29;14.80;99.90
13944;DHT22;7044;53.286;8.534;2022-10-31T15:53:56;14.80;99.90
13944;DHT22;7044;53.286;8.534;2022-10-31T15:58:54;14.80;99.90
13944;DHT22;7044;53.286;8.534;2022-10-31T16:01:25;14.70;99.90
13944;DHT22;7044;53.286;8.534;2022-10-31T16:04:19;14.70;99.90
13944;DHT22;7044;53.286;8.534;2022-10-31T16:06:58;14.70;99.90
13944;DHT22;7044;53.286;8.534;2022-10-31T16:09:25;14.70;99.90
13944;DHT22;7044;53.286;8.534;2022-10-31T16:11:52;14.70;99.90
13944;DHT22;7044;53.286;8.534;2022-10-31T16:14:23;14.70;99.90
13944;DHT22;7044;53.286;8.534;2022-10-31T16:16:54;14.60;99.90
13944;DHT22;7044;53.286;8.534;2022-10-31T16:19:23;14.70;99.90
13944;DHT22;7044;53.286;8.534;2022-10-31T16:21:53;14.70;99.90
13944;DHT22;7044;53.286;8.534;2022-10-31T16:24:23;14.70;99.90
13944;DHT22;7044;53.286;8.534;2022-10-31T16:26:54;14.80;99.90